createdAt,value
2023-01-22T00:01:40.628Z,100878.38
2023-01-22T00:04:11.821Z,100878.38
2023-01-22T00:06:39.561Z,100872.84
2023-01-22T00:09:08.546Z,100870.81
2023-01-22T00:11:36.267Z,100877.28
2023-01-22T00:14:03.854Z,100876.41
2023-01-22T00:16:31.550Z,100874.59
2023-01-22T00:18:59.405Z,100874.59
2023-01-22T00:21:27.635Z,100861.22
2023-01-22T00:23:55.700Z,100872.59
2023-01-22T00:26:24.788Z,100863.34
2023-01-22T00:28:52.694Z,100865.72
2023-01-22T00:31:21.105Z,100863.19
2023-01-22T00:33:48.866Z,100871.56
2023-01-22T00:36:19.013Z,100857.03
2023-01-22T00:38:48.886Z,100861.44
2023-01-22T00:41:17.486Z,100855.09
2023-01-22T00:43:46.739Z,100857.63
2023-01-22T00:46:17.169Z,100861.03
2023-01-22T00:48:46.198Z,100850.91
2023-01-22T00:51:15.487Z,100855.97
2023-01-22T00:53:43.737Z,100853.06
2023-01-22T00:56:12.244Z,100850.31
2023-01-22T00:58:40.763Z,100849.81
2023-01-22T01:01:13.163Z,100850.81
2023-01-22T01:03:41.347Z,100849.28
2023-01-22T01:06:13.863Z,100848.00
2023-01-22T01:08:43.311Z,100847.88
2023-01-22T01:11:14.503Z,100844.56
2023-01-22T01:13:43.349Z,100845.97
2023-01-22T01:16:16.305Z,100843.22
2023-01-22T01:18:46.411Z,100844.97
2023-01-22T01:21:14.863Z,100840.16
2023-01-22T01:23:43.045Z,100847.00
2023-01-22T01:26:14.799Z,100840.16
2023-01-22T01:28:43.855Z,100842.44
2023-01-22T01:31:14.878Z,100845.22
2023-01-22T01:33:43.341Z,100840.16
2023-01-22T01:36:13.367Z,100846.34
2023-01-22T01:38:41.505Z,100852.94
2023-01-22T01:41:09.394Z,100851.41
2023-01-22T01:43:36.993Z,100849.63
2023-01-22T01:46:06.370Z,100849.63
2023-01-22T01:48:38.908Z,100843.81
2023-01-22T01:51:12.209Z,100850.78
2023-01-22T01:53:42.000Z,100850.78
2023-01-22T01:56:14.222Z,100843.97
2023-01-22T01:58:43.570Z,100843.97
2023-01-22T02:01:14.689Z,100840.66
2023-01-22T02:03:44.462Z,100842.41
2023-01-22T02:06:13.065Z,100835.59
2023-01-22T02:08:41.450Z,100839.38
2023-01-22T02:11:11.243Z,100841.41
2023-01-22T02:13:43.981Z,100841.41
2023-01-22T02:16:11.894Z,100841.63
2023-01-22T02:18:39.539Z,100842.13
2023-01-22T02:21:28.738Z,100837.84
2023-01-22T02:23:56.453Z,100824.56
2023-01-22T02:26:24.061Z,100822.25
2023-01-22T02:28:51.610Z,100817.84
2023-01-22T02:31:19.335Z,100814.28
2023-01-22T02:33:46.980Z,100814.28
2023-01-22T02:36:16.133Z,100814.28
2023-01-22T02:38:45.090Z,100810.13
2023-01-22T02:41:13.136Z,100813.66
2023-01-22T02:43:40.759Z,100813.88
2023-01-22T02:46:08.381Z,100817.56
2023-01-22T02:48:36.005Z,100816.31
2023-01-22T02:51:03.808Z,100807.94
2023-01-22T02:53:31.479Z,100818.31
2023-01-22T02:56:01.640Z,100815.00
2023-01-22T02:58:29.206Z,100817.44
2023-01-22T03:00:56.768Z,100807.31
2023-01-22T03:03:24.387Z,100805.66
2023-01-22T03:05:52.941Z,100802.88
2023-01-22T03:08:21.200Z,100809.22
2023-01-22T03:10:48.777Z,100805.94
2023-01-22T03:13:35.422Z,100809.47
2023-01-22T03:16:21.868Z,100805.53
2023-01-22T03:19:07.131Z,100806.66
2023-01-22T03:21:34.895Z,100800.06
2023-01-22T03:24:02.688Z,100802.72
2023-01-22T03:26:31.508Z,100800.97
2023-01-22T03:29:01.677Z,100801.84
2023-01-22T03:31:29.329Z,100800.19
2023-01-22T03:33:58.609Z,100803.09
2023-01-22T03:36:26.471Z,100807.16
2023-01-22T03:38:58.453Z,100800.28
2023-01-22T03:41:26.665Z,100803.84
2023-01-22T03:43:55.378Z,100797.03
2023-01-22T03:46:30.128Z,100799.41
2023-01-22T03:48:59.161Z,100791.72
2023-01-22T03:51:27.226Z,100800.28
2023-01-22T03:53:54.757Z,100796.38
2023-01-22T03:56:23.996Z,100792.44
2023-01-22T03:58:54.475Z,100794.97
2023-01-22T04:01:25.408Z,100792.44
2023-01-22T04:03:55.289Z,100795.75
2023-01-22T04:06:25.882Z,100803.56
2023-01-22T04:08:55.449Z,100804.81
2023-01-22T04:11:28.853Z,100800.63
2023-01-22T04:13:57.265Z,100804.81
2023-01-22T04:16:28.052Z,100801.50
2023-01-22T04:19:20.099Z,100801.75
2023-01-22T04:21:57.816Z,100802.63
2023-01-22T04:24:25.428Z,100803.75
2023-01-22T04:26:53.824Z,100803.75
2023-01-22T04:29:21.893Z,100800.47
2023-01-22T04:31:50.393Z,100803.97
2023-01-22T04:34:29.789Z,100806.75
2023-01-22T04:37:20.542Z,100809.94
2023-01-22T04:39:48.267Z,100809.03
2023-01-22T04:42:16.432Z,100805.09
2023-01-22T04:44:44.053Z,100812.81
2023-01-22T04:47:11.618Z,100816.91
2023-01-22T04:49:42.010Z,100808.53
2023-01-22T04:52:12.276Z,100813.59
2023-01-22T04:54:40.102Z,100815.34
2023-01-22T04:57:08.469Z,100815.47
2023-01-22T04:59:36.073Z,100811.06
2023-01-22T05:02:03.948Z,100819.66
2023-01-22T05:04:32.746Z,100824.09
2023-01-22T05:07:01.782Z,100814.06
2023-01-22T05:09:29.356Z,100820.16
2023-01-22T05:12:00.301Z,100820.16
2023-01-22T05:14:32.452Z,100816.84
2023-01-22T05:17:01.788Z,100820.38
2023-01-22T05:19:29.648Z,100825.53
2023-01-22T05:22:01.177Z,100824.81
2023-01-22T05:24:28.861Z,100820.63
2023-01-22T05:26:56.678Z,100822.03
2023-01-22T05:29:33.715Z,100825.22
2023-01-22T05:32:18.563Z,100820.88
2023-01-22T05:34:52.578Z,100819.38
2023-01-22T05:37:21.490Z,100831.63
2023-01-22T05:39:49.131Z,100822.13
2023-01-22T05:42:18.453Z,100835.56
2023-01-22T05:44:48.867Z,100837.34
2023-01-22T05:47:19.440Z,100832.16
2023-01-22T05:50:06.176Z,100838.88
2023-01-22T05:52:35.124Z,100837.13
2023-01-22T05:55:02.790Z,100840.44
2023-01-22T05:57:37.274Z,100848.13
2023-01-22T06:00:06.735Z,100840.66
2023-01-22T06:02:44.233Z,100841.66
2023-01-22T06:05:14.283Z,100841.94
2023-01-22T06:07:44.714Z,100847.53
2023-01-22T06:10:12.506Z,100855.00
2023-01-22T06:12:46.036Z,100853.13
2023-01-22T06:15:13.754Z,100852.25
2023-01-22T06:17:46.929Z,100858.22
2023-01-22T06:20:15.204Z,100858.44
2023-01-22T06:22:44.170Z,100863.75
2023-01-22T06:25:11.953Z,100860.44
2023-01-22T06:27:59.431Z,100866.28
2023-01-22T06:30:27.277Z,100858.91
2023-01-22T06:32:55.871Z,100873.47
2023-01-22T06:35:23.777Z,100863.97
2023-01-22T06:37:53.160Z,100859.94
2023-01-22T06:40:21.273Z,100865.00
2023-01-22T06:42:50.511Z,100863.69
2023-01-22T06:45:18.735Z,100853.31
2023-01-22T06:47:51.728Z,100859.63
2023-01-22T06:50:19.649Z,100863.19
2023-01-22T06:52:47.293Z,100861.16
2023-01-22T06:55:17.910Z,100873.94
2023-01-22T06:57:46.412Z,100869.66
2023-01-22T07:00:14.829Z,100874.72
2023-01-22T07:02:42.397Z,100879.69
2023-01-22T07:05:10.285Z,100868.41
2023-01-22T07:07:37.916Z,100876.13
2023-01-22T07:10:06.079Z,100875.91
2023-01-22T07:12:35.029Z,100878.44
2023-01-22T07:15:02.947Z,100880.97
2023-01-22T07:17:30.624Z,100880.06
2023-01-22T07:19:58.192Z,100888.56
2023-01-22T07:22:25.793Z,100887.06
2023-01-22T07:24:53.344Z,100899.22
2023-01-22T07:27:20.894Z,100900.13
2023-01-22T07:29:50.818Z,100895.34
2023-01-22T07:32:18.396Z,100897.16
2023-01-22T07:34:45.943Z,100902.19
2023-01-22T07:37:13.531Z,100902.91
2023-01-22T07:39:41.071Z,100909.53
2023-01-22T07:42:08.620Z,100915.88
2023-01-22T07:44:40.169Z,100912.13
2023-01-22T07:47:10.067Z,100912.34
2023-01-22T07:49:37.672Z,100915.88
2023-01-22T07:52:05.453Z,100921.78
2023-01-22T07:54:36.192Z,100925.75
2023-01-22T07:57:04.087Z,100925.44
2023-01-22T07:59:31.833Z,100931.75
2023-01-22T08:02:01.165Z,100928.44
2023-01-22T08:04:32.057Z,100924.03
2023-01-22T08:06:59.640Z,100934.41
2023-01-22T08:09:27.228Z,100939.47
2023-01-22T08:11:54.783Z,100935.97
2023-01-22T08:14:22.367Z,100942.81
2023-01-22T08:16:49.944Z,100935.28
2023-01-22T08:19:17.507Z,100939.56
2023-01-22T08:21:46.404Z,100941.13
2023-01-22T08:24:14.227Z,100941.19
2023-01-22T08:26:41.752Z,100949.25
2023-01-22T08:29:09.359Z,100950.94
2023-01-22T08:31:37.018Z,100952.00
2023-01-22T08:34:04.752Z,100962.47
2023-01-22T08:36:32.440Z,100962.22
2023-01-22T08:39:01.355Z,100959.97
2023-01-22T08:41:28.860Z,100961.75
2023-01-22T08:43:56.517Z,100970.88
2023-01-22T08:46:24.026Z,100967.44
2023-01-22T08:48:51.560Z,100968.19
2023-01-22T08:51:19.247Z,100968.41
2023-01-22T08:53:46.852Z,100973.13
2023-01-22T08:56:15.729Z,100971.72
2023-01-22T08:58:43.288Z,100971.84
2023-01-22T09:01:15.674Z,100977.81
2023-01-22T09:03:43.356Z,100971.44
2023-01-22T09:06:11.156Z,100977.63
2023-01-22T09:08:38.805Z,100971.75
2023-01-22T09:11:07.271Z,100979.97
2023-01-22T09:13:36.219Z,100975.88
2023-01-22T09:16:05.872Z,100981.66
2023-01-22T09:18:33.465Z,100991.81
2023-01-22T09:21:01.140Z,100986.31
2023-01-22T09:23:28.640Z,100985.44
2023-01-22T09:25:56.254Z,100985.53
2023-01-22T09:28:23.774Z,100994.03
2023-01-22T09:30:52.780Z,100992.81
2023-01-22T09:33:20.355Z,100991.84
2023-01-22T09:35:47.933Z,100991.31
2023-01-22T09:38:15.691Z,100997.34
2023-01-22T09:40:46.503Z,101006.28
2023-01-22T09:43:26.622Z,100993.16
2023-01-22T09:45:58.956Z,100996.38
2023-01-22T09:48:34.107Z,101007.09
2023-01-22T09:51:02.242Z,101006.00
2023-01-22T09:53:30.860Z,101007.75
2023-01-22T09:55:58.906Z,101014.84
2023-01-22T09:58:27.069Z,101011.75
2023-01-22T10:01:00.425Z,101021.03
2023-01-22T10:03:34.101Z,101023.38
2023-01-22T10:06:05.991Z,101018.19
2023-01-22T10:08:35.799Z,101021.19
2023-01-22T10:11:03.863Z,101023.72
2023-01-22T10:13:34.394Z,101019.28
2023-01-22T10:16:04.667Z,101023.72
2023-01-22T10:18:35.929Z,101022.50
2023-01-22T10:21:07.810Z,101022.75
2023-01-22T10:23:35.731Z,101022.59
2023-01-22T10:26:15.113Z,101022.19
2023-01-22T10:28:46.102Z,101019.97
2023-01-22T10:31:28.233Z,101014.00
2023-01-22T10:33:57.849Z,101019.78
2023-01-22T10:36:25.526Z,101020.66
2023-01-22T10:39:04.549Z,101015.69
2023-01-22T10:41:32.646Z,101015.03
2023-01-22T10:44:10.312Z,101018.03
2023-01-22T10:46:39.251Z,101013.47
2023-01-22T10:49:08.257Z,101011.16
2023-01-22T10:51:38.655Z,101013.13
2023-01-22T10:54:20.567Z,101015.38
2023-01-22T10:56:49.227Z,101020.22
2023-01-22T10:59:22.885Z,101027.06
2023-01-22T11:01:58.676Z,101022.44
2023-01-22T11:04:28.748Z,101015.81
2023-01-22T11:07:00.882Z,101018.03
2023-01-22T11:09:37.972Z,101018.69
2023-01-22T11:12:13.284Z,101008.97
2023-01-22T11:14:41.036Z,101018.25
2023-01-22T11:17:18.764Z,101023.34
2023-01-22T11:19:57.783Z,101023.09
2023-01-22T11:22:29.998Z,101022.97
2023-01-22T11:24:57.550Z,101027.50
2023-01-22T11:27:45.995Z,101012.19
2023-01-22T11:30:40.026Z,101013.19
2023-01-22T11:33:22.329Z,101014.41
2023-01-22T11:35:55.247Z,101019.59
2023-01-22T11:38:33.087Z,101018.16
2023-01-22T11:41:10.311Z,101023.06
2023-01-22T11:44:05.975Z,101021.13
2023-01-22T11:46:54.196Z,101026.47
2023-01-22T11:49:32.496Z,101015.00
2023-01-22T11:52:11.767Z,101013.28
2023-01-22T11:54:55.575Z,101009.75
2023-01-22T11:57:27.302Z,101008.41
2023-01-22T12:00:16.833Z,100997.66
2023-01-22T12:03:05.448Z,100996.91
2023-01-22T12:05:43.603Z,101004.88
2023-01-22T12:08:21.395Z,101006.44
2023-01-22T12:11:17.897Z,100996.44
2023-01-22T12:14:10.560Z,100997.25
2023-01-22T12:16:46.256Z,100999.34
2023-01-22T12:19:55.573Z,100996.56
2023-01-22T12:22:32.875Z,100996.56
2023-01-22T12:25:11.296Z,100991.41
2023-01-22T12:27:43.890Z,100990.13
2023-01-22T12:30:20.834Z,100991.34
2023-01-22T12:32:54.108Z,100996.66
2023-01-22T12:35:23.382Z,101000.69
2023-01-22T12:37:58.365Z,101001.28
2023-01-22T12:40:42.286Z,100998.56
2023-01-22T12:43:09.961Z,100991.41
2023-01-22T12:45:46.012Z,101002.28
2023-01-22T12:48:24.459Z,100996.09
2023-01-22T12:50:54.439Z,100995.88
2023-01-22T12:53:26.217Z,100996.38
2023-01-22T12:56:06.046Z,100995.22
2023-01-22T12:58:35.967Z,100996.97
2023-01-22T13:01:07.838Z,100995.78
2023-01-22T13:03:36.659Z,100998.16
2023-01-22T13:06:18.688Z,100994.72
2023-01-22T13:08:47.942Z,100996.56
2023-01-22T13:11:29.081Z,101005.13
2023-01-22T13:14:14.328Z,101002.28
2023-01-22T13:16:50.695Z,101004.72
2023-01-22T13:19:21.998Z,101005.59
2023-01-22T13:21:51.902Z,101002.25
2023-01-22T13:24:22.305Z,101003.97
2023-01-22T13:26:55.104Z,101006.03
2023-01-22T13:29:27.037Z,101013.47
2023-01-22T13:31:56.824Z,101013.81
2023-01-22T13:34:24.940Z,101013.59
2023-01-22T13:36:52.816Z,101020.03
2023-01-22T13:39:25.732Z,101020.19
2023-01-22T13:41:55.440Z,101020.13
2023-01-22T13:44:25.887Z,101025.47
2023-01-22T13:46:53.876Z,101023.97
2023-01-22T13:49:23.997Z,101030.41
2023-01-22T13:51:52.188Z,101032.22
2023-01-22T13:54:25.103Z,101032.22
2023-01-22T13:56:52.722Z,101028.56
2023-01-22T13:59:23.403Z,101030.47
2023-01-22T14:01:51.679Z,101032.44
2023-01-22T14:04:38.928Z,101029.34
2023-01-22T14:07:07.292Z,101027.91
2023-01-22T14:09:38.509Z,101025.59
2023-01-22T14:12:15.348Z,101026.56
2023-01-22T14:14:43.350Z,101032.75
2023-01-22T14:17:21.684Z,101030.47
2023-01-22T14:19:49.248Z,101044.13
2023-01-22T14:22:17.327Z,101042.91
2023-01-22T14:24:46.230Z,101045.69
2023-01-22T14:27:14.140Z,101040.22
2023-01-22T14:29:41.819Z,101040.00
2023-01-22T14:32:09.355Z,101046.16
2023-01-22T14:34:36.909Z,101041.56
2023-01-22T14:37:04.587Z,101038.94
2023-01-22T14:39:33.379Z,101044.03
2023-01-22T14:42:02.951Z,101043.06
2023-01-22T14:44:31.713Z,101037.00
2023-01-22T14:46:59.312Z,101034.31
2023-01-22T14:49:26.962Z,101034.78
2023-01-22T14:51:54.854Z,101035.19
2023-01-22T14:54:22.671Z,101047.50
2023-01-22T14:56:50.205Z,101049.50
2023-01-22T14:59:20.857Z,101048.69
2023-01-22T15:01:48.693Z,101055.38
2023-01-22T15:04:16.381Z,101056.03
2023-01-22T15:06:43.942Z,101060.25
2023-01-22T15:09:12.110Z,101052.50
2023-01-22T15:11:39.680Z,101064.69
2023-01-22T15:14:07.321Z,101070.75
2023-01-22T15:16:38.326Z,101068.56
2023-01-22T15:19:05.941Z,101063.78
2023-01-22T15:21:33.547Z,101073.00
2023-01-22T15:24:02.187Z,101068.56
2023-01-22T15:26:32.557Z,101075.31
2023-01-22T15:29:00.170Z,101075.41
2023-01-22T15:31:28.029Z,101077.53
2023-01-22T15:33:57.812Z,101086.16
2023-01-22T15:36:25.423Z,101084.25
2023-01-22T15:38:52.941Z,101083.03
2023-01-22T15:41:22.983Z,101097.22
2023-01-22T15:43:51.763Z,101089.91
2023-01-22T15:46:20.185Z,101090.03
2023-01-22T15:48:47.840Z,101098.31
2023-01-22T15:51:17.496Z,101093.91
2023-01-22T15:53:49.522Z,101097.09
2023-01-22T15:56:17.182Z,101092.53
2023-01-22T15:58:44.776Z,101100.59
2023-01-22T16:01:12.390Z,101103.16
2023-01-22T16:03:39.932Z,101101.16
2023-01-22T16:06:11.851Z,101101.38
2023-01-22T16:08:41.390Z,101097.09
2023-01-22T16:11:09.248Z,101092.78
2023-01-22T16:13:37.175Z,101097.84
2023-01-22T16:16:07.060Z,101102.06
2023-01-22T16:18:35.754Z,101109.56
2023-01-22T16:21:04.311Z,101112.09
2023-01-22T16:23:33.002Z,101109.22
2023-01-22T16:26:05.983Z,101119.28
2023-01-22T16:28:33.709Z,101114.72
2023-01-22T16:31:04.163Z,101125.66
2023-01-22T16:33:33.423Z,101114.38
2023-01-22T16:36:02.470Z,101118.81
2023-01-22T16:38:30.843Z,101120.59
2023-01-22T16:41:17.657Z,101123.22
2023-01-22T16:43:54.252Z,101125.22
2023-01-22T16:46:24.592Z,101123.91
2023-01-22T16:48:57.621Z,101130.31
2023-01-22T16:51:27.652Z,101130.06
2023-01-22T16:53:56.117Z,101131.63
2023-01-22T16:56:25.115Z,101126.53
2023-01-22T16:58:52.679Z,101126.28
2023-01-22T17:01:20.650Z,101133.69
2023-01-22T17:03:48.504Z,101135.13
2023-01-22T17:06:23.916Z,101139.06
2023-01-22T17:08:53.037Z,101150.78
2023-01-22T17:11:21.138Z,101147.25
2023-01-22T17:13:50.747Z,101150.53
2023-01-22T17:16:19.098Z,101152.97
2023-01-22T17:18:46.965Z,101156.66
2023-01-22T17:21:17.860Z,101160.16
2023-01-22T17:23:45.657Z,101160.69
2023-01-22T17:26:15.569Z,101165.78
2023-01-22T17:28:43.161Z,101161.38
2023-01-22T17:31:15.242Z,101168.88
2023-01-22T17:33:44.077Z,101167.09
2023-01-22T17:36:13.819Z,101171.94
2023-01-22T17:38:41.500Z,101167.50
2023-01-22T17:41:12.077Z,101167.50
2023-01-22T17:43:39.835Z,101165.53
2023-01-22T17:46:09.518Z,101174.75
2023-01-22T17:48:39.102Z,101178.22
2023-01-22T17:51:08.701Z,101173.25
2023-01-22T17:53:39.382Z,101184.41
2023-01-22T17:56:12.265Z,101183.63
2023-01-22T17:58:42.811Z,101179.47
2023-01-22T18:01:12.646Z,101181.84
2023-01-22T18:03:41.910Z,101180.09
2023-01-22T18:06:09.753Z,101185.19
2023-01-22T18:08:39.450Z,101181.66
2023-01-22T18:11:08.692Z,101193.56
2023-01-22T18:13:37.908Z,101185.69
2023-01-22T18:16:06.956Z,101198.66
2023-01-22T18:18:34.988Z,101191.81
2023-01-22T18:21:04.137Z,101197.63
2023-01-22T18:23:31.716Z,101203.47
2023-01-22T18:25:59.797Z,101203.47
2023-01-22T18:28:28.322Z,101210.31
2023-01-22T18:30:56.486Z,101209.59
2023-01-22T18:33:24.085Z,101211.25
2023-01-22T18:35:54.078Z,101206.56
2023-01-22T18:38:26.080Z,101204.56
2023-01-22T18:40:53.910Z,101209.38
2023-01-22T18:43:21.465Z,101210.25
2023-01-22T18:45:49.058Z,101205.84
2023-01-22T18:48:17.185Z,101209.03
2023-01-22T18:50:51.719Z,101211.97
2023-01-22T18:53:19.499Z,101215.16
2023-01-22T18:55:48.497Z,101215.03
2023-01-22T18:58:27.302Z,101219.88
2023-01-22T19:00:56.319Z,101224.69
2023-01-22T19:03:24.273Z,101222.94
2023-01-22T19:05:52.486Z,101219.63
2023-01-22T19:08:20.489Z,101224.59
2023-01-22T19:10:49.507Z,101227.91
2023-01-22T19:13:20.027Z,101228.66
2023-01-22T19:15:48.399Z,101219.41
2023-01-22T19:18:15.935Z,101220.28
2023-01-22T19:20:43.622Z,101214.94
2023-01-22T19:23:11.195Z,101223.44
2023-01-22T19:25:38.757Z,101224.22
2023-01-22T19:28:07.786Z,101224.88
2023-01-22T19:30:35.376Z,101223.59
2023-01-22T19:33:02.924Z,101225.22
2023-01-22T19:35:30.519Z,101233.59
2023-01-22T19:37:58.065Z,101229.81
2023-01-22T19:40:25.677Z,101235.44
2023-01-22T19:42:53.220Z,101230.34
2023-01-22T19:45:22.162Z,101237.19
2023-01-22T19:47:50.054Z,101244.81
2023-01-22T19:50:17.727Z,101251.16
2023-01-22T19:52:45.312Z,101249.59
2023-01-22T19:55:12.886Z,101248.72
2023-01-22T19:57:40.493Z,101252.25
2023-01-22T20:00:10.230Z,101254.94
2023-01-22T20:02:40.333Z,101259.75
2023-01-22T20:05:09.032Z,101259.75
2023-01-22T20:07:36.566Z,101251.88
2023-01-22T20:10:05.152Z,101254.69
2023-01-22T20:12:32.974Z,101262.41
2023-01-22T20:15:00.569Z,101264.22
2023-01-22T20:17:28.089Z,101267.63
2023-01-22T20:19:57.079Z,101256.44
2023-01-22T20:22:24.784Z,101270.69
2023-01-22T20:24:52.444Z,101265.34
2023-01-22T20:27:20.043Z,101262.81
2023-01-22T20:29:47.625Z,101266.13
2023-01-22T20:32:15.175Z,101268.91
2023-01-22T20:34:48.564Z,101270.56
2023-01-22T20:37:17.544Z,101270.56
2023-01-22T20:39:45.169Z,101270.56
2023-01-22T20:42:12.726Z,101276.53
2023-01-22T20:44:41.159Z,101275.38
2023-01-22T20:47:10.965Z,101274.50
2023-01-22T20:49:41.495Z,101267.88
2023-01-22T20:52:09.138Z,101275.00
2023-01-22T20:54:50.018Z,101282.25
2023-01-22T20:57:25.813Z,101279.59
2023-01-22T20:59:53.349Z,101280.47
2023-01-22T21:02:20.960Z,101280.47
2023-01-22T21:04:51.547Z,101287.31
2023-01-22T21:07:19.156Z,101289.09
2023-01-22T21:09:48.264Z,101276.75
2023-01-22T21:12:15.935Z,101288.19
2023-01-22T21:14:43.502Z,101287.31
2023-01-22T21:17:18.765Z,101290.50
2023-01-22T21:19:46.372Z,101287.72
2023-01-22T21:22:13.933Z,101286.19
2023-01-22T21:24:41.505Z,101293.81
2023-01-22T21:27:10.454Z,101292.38
2023-01-22T21:29:37.958Z,101291.28
2023-01-22T21:32:05.653Z,101293.06
2023-01-22T21:34:36.262Z,101282.63
2023-01-22T21:37:11.380Z,101292.78
2023-01-22T21:39:44.997Z,101297.97
2023-01-22T21:42:31.825Z,101291.28
2023-01-22T21:45:17.139Z,101291.28
2023-01-22T21:47:44.703Z,101292.28
2023-01-22T21:50:12.252Z,101284.66
2023-01-22T21:52:44.796Z,101289.47
2023-01-22T21:55:12.855Z,101285.16
2023-01-22T21:57:42.798Z,101289.47
2023-01-22T22:00:11.718Z,101290.88
2023-01-22T22:02:39.296Z,101297.34
2023-01-22T22:05:08.100Z,101291.28
2023-01-22T22:07:35.633Z,101291.00
2023-01-22T22:10:03.351Z,101293.56
2023-01-22T22:12:32.415Z,101296.88
2023-01-22T22:15:04.401Z,101300.91
2023-01-22T22:17:32.069Z,101298.66
2023-01-22T22:19:59.678Z,101294.47
2023-01-22T22:22:27.229Z,101297.25
2023-01-22T22:24:54.988Z,101291.53
2023-01-22T22:27:22.554Z,101302.19
2023-01-22T22:29:52.923Z,101301.94
2023-01-22T22:32:22.438Z,101294.06
2023-01-22T22:34:50.425Z,101299.91
2023-01-22T22:37:20.247Z,101305.00
2023-01-22T22:39:48.316Z,101303.13
2023-01-22T22:42:15.869Z,101309.06
2023-01-22T22:44:43.522Z,101307.41
2023-01-22T22:47:11.093Z,101302.19
2023-01-22T22:49:39.955Z,101302.19
2023-01-22T22:52:07.554Z,101311.47
2023-01-22T22:54:35.100Z,101304.72
2023-01-22T22:57:02.662Z,101295.34
2023-01-22T22:59:30.189Z,101300.41
2023-01-22T23:01:57.843Z,101302.97
2023-01-22T23:04:25.546Z,101313.13
2023-01-22T23:06:54.511Z,101310.97
2023-01-22T23:09:22.246Z,101319.56
2023-01-22T23:11:51.908Z,101316.28
2023-01-22T23:14:19.685Z,101318.56
2023-01-22T23:16:47.668Z,101312.34
2023-01-22T23:19:17.761Z,101314.00
2023-01-22T23:21:45.766Z,101310.84
2023-01-22T23:24:15.176Z,101316.78
2023-01-22T23:26:44.783Z,101317.78
2023-01-22T23:29:15.028Z,101313.88
2023-01-22T23:31:42.867Z,101315.63
2023-01-22T23:34:20.920Z,101308.78
2023-01-22T23:36:50.059Z,101316.03
2023-01-22T23:39:20.689Z,101309.56
2023-01-22T23:41:48.476Z,101313.09
2023-01-22T23:44:16.197Z,101310.56
2023-01-22T23:46:44.766Z,101320.09
2023-01-22T23:49:12.367Z,101317.41
2023-01-22T23:51:42.077Z,101314.13
2023-01-22T23:54:10.029Z,101314.38
2023-01-22T23:56:38.978Z,101317.31
2023-01-22T23:59:06.897Z,101310.06
